Time;durP1;ratioP1;P1;durP2;ratioP2;P2;SDS_P1;SDS_P2;PMS_P1;PMS_P2;Temp;Humidity;BMP_temperature;BMP_pressure;BME280_temperature;BME280_humidity;BME280_pressure;Samples;Min_cycle;Max_cycle;Signal;HPM_P1;HPM_P2
2022/08/14 00:00:56;;;;;;;5.45;2.60;;;23.70;64.00;;;;;;4695110;30;20053;-73
2022/08/14 00:03:26;;;;;;;3.38;2.75;;;23.60;64.40;;;;;;4697122;30;20056;-73
2022/08/14 00:05:55;;;;;;;3.63;3.30;;;23.60;64.50;;;;;;4699664;30;20375;-73
2022/08/14 00:08:21;;;;;;;2.67;2.47;;;23.60;64.90;;;;;;4701587;30;20041;-73
2022/08/14 00:10:48;;;;;;;2.75;2.13;;;23.50;64.90;;;;;;4697068;30;20037;-73
2022/08/14 00:13:17;;;;;;;4.25;3.28;;;23.50;65.00;;;;;;4698652;30;20045;-73
2022/08/14 00:15:46;;;;;;;4.45;3.22;;;23.40;65.40;;;;;;4697220;30;20064;-73
2022/08/14 00:18:15;;;;;;;3.33;2.35;;;23.40;65.60;;;;;;4697366;30;20052;-73
2022/08/14 00:20:43;;;;;;;3.28;2.83;;;23.30;65.40;;;;;;4701499;30;20132;-73
2022/08/14 00:23:12;;;;;;;4.25;3.42;;;23.30;65.90;;;;;;4699203;30;20049;-73
2022/08/14 00:25:39;;;;;;;3.88;3.03;;;23.30;66.40;;;;;;4703245;30;20098;-73
2022/08/14 00:28:08;;;;;;;2.58;2.35;;;23.20;66.30;;;;;;4692845;30;20045;-74
2022/08/14 00:30:35;;;;;;;3.65;3.35;;;23.20;66.50;;;;;;4685658;30;20062;-73
2022/08/14 00:33:25;;;;;;;3.40;3.10;;;23.10;66.60;;;;;;5125604;27;20509;-72
2022/08/14 00:35:52;;;;;;;5.00;3.85;;;23.10;66.90;;;;;;5106732;28;20487;-71
2022/08/14 00:38:20;;;;;;;5.05;4.13;;;23.10;66.80;;;;;;5114888;28;20387;-72
2022/08/14 00:40:47;;;;;;;4.47;3.60;;;23.00;67.00;;;;;;5113938;28;20040;-71
2022/08/14 00:43:14;;;;;;;4.63;3.20;;;23.00;67.20;;;;;;5110834;28;20039;-71
2022/08/14 00:45:41;;;;;;;3.67;3.28;;;22.90;67.50;;;;;;5113591;28;20745;-71
2022/08/14 00:48:09;;;;;;;6.80;2.92;;;22.90;67.60;;;;;;5116434;28;20043;-71
2022/08/14 00:50:36;;;;;;;6.53;3.20;;;22.90;67.90;;;;;;5113121;28;20020;-71
2022/08/14 00:53:03;;;;;;;3.20;2.90;;;22.80;68.00;;;;;;5109251;28;20390;-71
2022/08/14 00:55:30;;;;;;;4.00;3.25;;;22.80;68.00;;;;;;5115235;28;20023;-71
2022/08/14 01:00:47;;;;;;;2.88;2.63;;;22.70;68.50;;;;;;5128984;27;20036;-73
2022/08/14 01:03:16;;;;;;;3.15;2.67;;;22.60;68.30;;;;;;5110789;28;20046;-73
2022/08/14 01:05:48;;;;;;;5.05;3.85;;;22.60;68.70;;;;;;5116586;28;20039;-73
2022/08/14 01:08:20;;;;;;;3.47;2.78;;;22.60;69.20;;;;;;5111888;27;20056;-73
2022/08/14 01:10:50;;;;;;;4.05;2.80;;;22.50;69.60;;;;;;5097847;28;20036;-74
2022/08/14 01:13:23;;;;;;;7.78;3.03;;;22.50;69.30;;;;;;5094258;28;20035;-75
2022/08/14 01:15:53;;;;;;;3.55;3.25;;;22.50;69.40;;;;;;5111362;28;20020;-75
2022/08/14 01:21:08;;;;;;;3.45;2.90;;;22.40;70.00;;;;;;5114344;28;20043;-75
2022/08/14 01:23:41;;;;;;;3.35;2.63;;;22.30;69.90;;;;;;5123890;27;20028;-75
2022/08/14 01:26:08;;;;;;;3.10;2.75;;;22.30;69.90;;;;;;5113949;28;20047;-75
2022/08/14 01:28:36;;;;;;;3.63;3.33;;;22.30;70.10;;;;;;5132917;27;20509;-75
2022/08/14 01:31:08;;;;;;;6.30;3.60;;;22.20;70.30;;;;;;5101411;27;20055;-76
2022/08/14 01:33:37;;;;;;;2.95;2.72;;;22.20;70.50;;;;;;5107849;28;20031;-76
2022/08/14 01:36:04;;;;;;;3.97;2.63;;;22.20;70.40;;;;;;5113159;28;20039;-76
2022/08/14 01:38:33;;;;;;;3.30;3.00;;;22.20;70.60;;;;;;5109152;28;20023;-76
2022/08/14 01:41:01;;;;;;;3.50;3.20;;;22.10;70.60;;;;;;5119562;28;20024;-76
2022/08/14 01:43:29;;;;;;;3.90;3.20;;;22.10;70.90;;;;;;5085387;28;20035;-75
2022/08/14 01:45:59;;;;;;;2.80;2.40;;;22.10;71.20;;;;;;5100321;28;20039;-75
2022/08/14 01:48:32;;;;;;;2.65;2.33;;;22.00;70.90;;;;;;5092200;28;20032;-75
2022/08/14 01:51:02;;;;;;;3.05;2.33;;;22.00;71.10;;;;;;5098458;28;20418;-75
2022/08/14 01:53:30;;;;;;;4.25;3.00;;;21.90;71.10;;;;;;5098565;28;20066;-75
2022/08/14 01:56:04;;;;;;;3.80;3.47;;;21.90;71.60;;;;;;5098940;28;20042;-75
2022/08/14 01:58:31;;;;;;;5.53;3.22;;;21.90;71.60;;;;;;5093976;28;20095;-75
2022/08/14 02:00:58;;;;;;;3.63;3.13;;;21.90;71.90;;;;;;5098142;28;20032;-75
2022/08/14 02:03:30;;;;;;;3.70;3.40;;;21.90;72.10;;;;;;5097032;28;20038;-75
2022/08/14 02:05:58;;;;;;;5.00;3.28;;;21.80;72.00;;;;;;5078790;28;20035;-75
2022/08/14 02:08:28;;;;;;;4.03;2.80;;;21.80;72.20;;;;;;5082925;28;20044;-75
2022/08/14 02:11:21;;;;;;;3.33;3.03;;;21.80;72.20;;;;;;5095824;28;20506;-75
2022/08/14 02:13:46;;;;;;;5.53;3.83;;;21.80;72.30;;;;;;5112310;27;20058;-75
2022/08/14 02:16:16;;;;;;;3.47;3.17;;;21.70;72.40;;;;;;5080837;28;20054;-75
2022/08/14 02:18:43;;;;;;;4.93;4.35;;;21.70;72.70;;;;;;5098434;28;20036;-75
2022/08/14 02:21:11;;;;;;;4.00;3.67;;;21.70;73.20;;;;;;5075035;28;20041;-75
2022/08/14 02:23:38;;;;;;;3.35;2.92;;;21.70;73.10;;;;;;5093887;28;20028;-75
2022/08/14 02:26:24;;;;;;;4.00;2.35;;;21.70;73.00;;;;;;5094037;28;20480;-75
2022/08/14 02:28:55;;;;;;;4.47;3.33;;;21.60;73.00;;;;;;5098392;28;20036;-75
2022/08/14 02:31:21;;;;;;;3.95;3.55;;;21.60;73.20;;;;;;5096479;28;20040;-75
2022/08/14 02:33:48;;;;;;;3.30;3.00;;;21.60;73.20;;;;;;5074041;28;20391;-75
2022/08/14 02:36:15;;;;;;;4.20;3.20;;;21.60;73.30;;;;;;5079117;28;20027;-75
2022/08/14 02:38:44;;;;;;;3.42;3.13;;;21.50;73.20;;;;;;5100582;28;20036;-75
2022/08/14 02:41:12;;;;;;;5.00;3.20;;;21.50;73.30;;;;;;5092537;28;20051;-75
2022/08/14 02:43:39;;;;;;;3.67;2.75;;;21.40;73.60;;;;;;5109783;27;20032;-75
2022/08/14 02:46:10;;;;;;;3.80;2.40;;;21.40;73.60;;;;;;5096268;28;20050;-75
2022/08/14 02:48:41;;;;;;;3.35;3.05;;;21.30;73.70;;;;;;5096271;28;20036;-75
2022/08/14 02:51:10;;;;;;;3.30;2.97;;;21.30;73.90;;;;;;5095394;28;20032;-74
2022/08/14 02:53:43;;;;;;;3.67;3.38;;;21.30;74.00;;;;;;5109365;27;20398;-74
2022/08/14 02:56:14;;;;;;;4.30;3.45;;;21.30;74.20;;;;;;5096050;28;20398;-74
2022/08/14 02:58:44;;;;;;;4.45;3.97;;;21.30;74.40;;;;;;5100020;28;20042;-74
2022/08/14 03:01:11;;;;;;;3.33;3.03;;;21.20;74.40;;;;;;5111847;27;20055;-74
2022/08/14 03:03:38;;;;;;;3.35;3.05;;;21.20;74.40;;;;;;5075835;28;20047;-74
2022/08/14 03:06:06;;;;;;;3.33;3.03;;;21.20;74.50;;;;;;5113971;27;20116;-74
2022/08/14 03:08:37;;;;;;;3.85;2.88;;;21.20;74.50;;;;;;5094924;28;20040;-74
2022/08/14 03:11:06;;;;;;;2.92;2.72;;;21.20;74.70;;;;;;5096740;28;20051;-74
2022/08/14 03:13:34;;;;;;;4.03;3.72;;;21.10;74.70;;;;;;5091431;28;20036;-74
2022/08/14 03:16:05;;;;;;;4.90;3.53;;;21.10;75.10;;;;;;5093783;28;20039;-74
2022/08/14 03:18:32;;;;;;;3.90;3.33;;;21.10;75.00;;;;;;5075423;28;20036;-74
2022/08/14 03:21:01;;;;;;;4.63;3.67;;;21.10;75.10;;;;;;5104247;28;20423;-74
2022/08/14 03:23:34;;;;;;;3.80;3.45;;;21.10;75.30;;;;;;5096838;28;20462;-74
2022/08/14 03:26:02;;;;;;;6.50;3.05;;;21.10;75.30;;;;;;5096913;28;20036;-74
2022/08/14 03:28:29;;;;;;;4.60;4.03;;;21.10;75.40;;;;;;5098545;28;20050;-74
2022/08/14 03:30:59;;;;;;;4.75;4.35;;;21.00;75.90;;;;;;5098355;28;20032;-74
2022/08/14 03:33:28;;;;;;;3.17;2.88;;;21.00;76.00;;;;;;5096101;28;20111;-74
2022/08/14 03:35:55;;;;;;;3.95;3.65;;;21.00;75.90;;;;;;5094003;28;20028;-74
2022/08/14 03:38:24;;;;;;;4.97;4.13;;;20.90;76.10;;;;;;5098595;28;20042;-74
2022/08/14 03:40:51;;;;;;;3.88;3.58;;;20.90;76.20;;;;;;5080289;28;20036;-74
2022/08/14 03:43:17;;;;;;;4.28;3.88;;;20.90;76.50;;;;;;5076732;28;20055;-74
2022/08/14 03:45:44;;;;;;;4.45;3.38;;;20.90;76.70;;;;;;5094595;28;20039;-74
2022/08/14 03:48:18;;;;;;;3.67;3.35;;;20.80;76.70;;;;;;5097901;28;20367;-74
2022/08/14 03:50:50;;;;;;;3.75;3.13;;;20.80;76.70;;;;;;5093776;28;20040;-74
2022/08/14 03:53:18;;;;;;;4.65;3.40;;;20.80;76.80;;;;;;5094251;28;20035;-74
2022/08/14 03:55:46;;;;;;;3.45;3.15;;;20.70;76.80;;;;;;5099531;28;20038;-74
2022/08/14 03:58:14;;;;;;;3.95;2.75;;;20.70;76.90;;;;;;5101133;28;20023;-74
2022/08/14 04:00:40;;;;;;;4.70;4.20;;;20.70;77.10;;;;;;5117972;27;20047;-74
2022/08/14 04:03:09;;;;;;;4.18;3.55;;;20.70;77.30;;;;;;5096959;28;20307;-74
2022/08/14 04:05:37;;;;;;;4.03;3.42;;;20.70;77.40;;;;;;5101575;28;20039;-74
2022/08/14 04:08:08;;;;;;;4.32;3.92;;;20.70;77.40;;;;;;5099168;28;20027;-74
2022/08/14 04:10:35;;;;;;;4.43;4.03;;;20.60;77.80;;;;;;5078583;28;20024;-73
2022/08/14 04:13:04;;;;;;;4.68;3.70;;;20.60;77.90;;;;;;5077418;28;20040;-76
2022/08/14 04:15:33;;;;;;;4.65;3.35;;;20.60;77.80;;;;;;5099184;28;20027;-74
2022/08/14 04:18:05;;;;;;;3.55;3.25;;;20.60;77.90;;;;;;5095439;28;20028;-74
2022/08/14 04:20:31;;;;;;;5.43;4.90;;;20.60;78.10;;;;;;5108102;27;20023;-74
2022/08/14 04:22:58;;;;;;;4.63;4.07;;;20.60;78.20;;;;;;5092876;28;20036;-74
2022/08/14 04:25:24;;;;;;;4.30;3.90;;;20.50;78.20;;;;;;5091532;28;20036;-75
2022/08/14 04:27:50;;;;;;;5.40;4.53;;;20.50;78.30;;;;;;5090587;28;20044;-74
2022/08/14 04:30:17;;;;;;;5.90;4.60;;;20.50;78.60;;;;;;5097279;28;20051;-74
2022/08/14 04:32:43;;;;;;;5.72;3.50;;;20.50;78.50;;;;;;5094957;28;20060;-75
2022/08/14 04:35:10;;;;;;;4.57;4.25;;;20.50;78.60;;;;;;5090960;28;20039;-73
2022/08/14 04:45:56;;;;;;;5.43;4.75;;;20.50;78.90;;;;;;5092756;28;20512;-73
2022/08/14 04:48:24;;;;;;;5.47;4.97;;;20.50;79.20;;;;;;5094552;28;20043;-73
2022/08/14 04:50:50;;;;;;;5.32;4.82;;;20.50;79.30;;;;;;5116736;28;20513;-73
2022/08/14 04:53:19;;;;;;;4.50;4.07;;;20.50;79.40;;;;;;5099412;28;20258;-73
2022/08/14 04:55:47;;;;;;;3.88;3.50;;;20.60;79.50;;;;;;5114008;28;20035;-73
2022/08/14 04:58:16;;;;;;;4.15;3.80;;;20.70;79.30;;;;;;5079747;28;20035;-73
2022/08/14 05:00:44;;;;;;;4.13;3.72;;;20.70;79.20;;;;;;5097190;28;20024;-73
2022/08/14 05:03:12;;;;;;;3.90;3.58;;;20.70;79.20;;;;;;5094677;28;20040;-73
2022/08/14 05:05:40;;;;;;;3.97;3.55;;;20.80;79.20;;;;;;5098485;28;20042;-73
2022/08/14 05:08:11;;;;;;;3.92;3.33;;;20.90;79.00;;;;;;5094494;28;20150;-73
2022/08/14 05:10:50;;;;;;;4.82;4.07;;;21.00;78.80;;;;;;5092993;28;20032;-73
2022/08/14 05:13:18;;;;;;;5.03;4.18;;;21.10;78.60;;;;;;5092270;28;20162;-73
2022/08/14 05:15:46;;;;;;;7.88;4.50;;;21.20;78.50;;;;;;5097233;28;20391;-74
2022/08/14 05:18:18;;;;;;;4.90;4.50;;;21.20;78.70;;;;;;5100107;28;20029;-74
2022/08/14 05:20:50;;;;;;;5.32;4.82;;;21.10;78.90;;;;;;5081725;28;20040;-74
2022/08/14 05:23:20;;;;;;;;;;;21.10;78.90;;;;;;5095280;28;20147;-74
2022/08/14 05:25:53;;;;;;;4.55;4.15;;;21.10;78.90;;;;;;5099797;28;20346;-74
2022/08/14 05:28:24;;;;;;;7.50;6.25;;;21.10;78.90;;;;;;5085551;28;20051;-74
2022/08/14 05:30:55;;;;;;;4.53;4.18;;;21.10;79.20;;;;;;5098900;28;20371;-73
2022/08/14 05:33:24;;;;;;;4.57;4.03;;;21.10;79.10;;;;;;5099859;28;20488;-73
2022/08/14 05:35:52;;;;;;;5.68;5.18;;;21.20;79.10;;;;;;5097582;28;20032;-73
2022/08/14 05:38:21;;;;;;;5.00;4.50;;;21.20;79.20;;;;;;5105519;28;20032;-73
2022/08/14 05:40:48;;;;;;;6.80;4.75;;;21.30;79.00;;;;;;5091939;28;20035;-73
2022/08/14 05:43:15;;;;;;;5.70;5.22;;;21.30;79.00;;;;;;5078985;28;20036;-73
2022/08/14 05:45:42;;;;;;;6.18;5.18;;;21.40;78.90;;;;;;5099171;28;20043;-73
2022/08/14 05:48:14;;;;;;;5.05;4.63;;;21.50;78.90;;;;;;5105001;28;20031;-74
2022/08/14 05:50:41;;;;;;;5.05;4.45;;;21.60;78.90;;;;;;5100033;28;20032;-74
2022/08/14 05:53:08;;;;;;;5.40;4.95;;;21.70;78.50;;;;;;5096461;28;20047;-73
2022/08/14 05:55:34;;;;;;;6.82;6.13;;;21.90;78.30;;;;;;5095756;28;20142;-74
2022/08/14 05:58:05;;;;;;;7.00;4.60;;;22.10;78.00;;;;;;5098006;28;20028;-74
2022/08/14 06:00:35;;;;;;;5.30;4.80;;;22.30;77.60;;;;;;5120935;27;20062;-74
2022/08/14 06:03:08;;;;;;;6.35;5.53;;;22.40;77.30;;;;;;5096546;28;20047;-74
2022/08/14 06:05:35;;;;;;;5.22;4.72;;;22.50;76.90;;;;;;5097406;28;20321;-74
2022/08/14 06:08:02;;;;;;;5.82;5.22;;;22.70;76.50;;;;;;5100271;28;20046;-74
2022/08/14 06:10:30;;;;;;;4.78;4.35;;;22.80;76.20;;;;;;5097906;28;20082;-74
2022/08/14 06:12:57;;;;;;;4.60;4.20;;;23.00;76.00;;;;;;5097653;28;20027;-74
2022/08/14 06:15:25;;;;;;;8.07;4.45;;;23.20;75.60;;;;;;5080372;28;20040;-72
2022/08/14 06:17:55;;;;;;;5.28;4.78;;;23.30;75.30;;;;;;5098922;28;20031;-72
2022/08/14 06:20:23;;;;;;;7.05;4.60;;;23.50;75.00;;;;;;5096605;28;20035;-72
2022/08/14 06:22:49;;;;;;;5.40;4.32;;;23.60;74.80;;;;;;5100595;28;20386;-72
2022/08/14 06:25:16;;;;;;;5.72;5.32;;;23.70;74.60;;;;;;5096831;28;20032;-72
2022/08/14 06:27:45;;;;;;;5.68;5.18;;;23.70;74.30;;;;;;5097357;28;20043;-72
2022/08/14 06:30:17;;;;;;;4.95;4.53;;;23.80;74.20;;;;;;5098811;28;20036;-72
2022/08/14 06:32:45;;;;;;;5.72;5.18;;;23.90;74.10;;;;;;5104372;27;20059;-72
2022/08/14 06:35:22;;;;;;;5.72;5.22;;;24.00;73.80;;;;;;5097126;28;20375;-72
2022/08/14 06:37:54;;;;;;;5.80;5.30;;;24.10;73.70;;;;;;5076591;28;20036;-73
2022/08/14 06:40:27;;;;;;;6.20;5.60;;;24.20;73.40;;;;;;5095309;28;20028;-72
2022/08/14 06:43:14;;;;;;;6.75;5.93;;;24.30;73.20;;;;;;5098068;28;20026;-73
2022/08/14 06:45:42;;;;;;;6.13;5.72;;;24.50;72.90;;;;;;5066890;28;20044;-72
2022/08/14 06:48:16;;;;;;;6.68;6.07;;;24.70;72.40;;;;;;5099192;28;20036;-73
2022/08/14 06:50:44;;;;;;;6.75;6.15;;;25.10;71.50;;;;;;5078477;28;20036;-72
2022/08/14 06:53:13;;;;;;;5.63;5.15;;;25.40;70.70;;;;;;5112520;27;20251;-73
2022/08/14 06:55:41;;;;;;;5.63;5.13;;;25.50;70.60;;;;;;5079746;28;20055;-73
2022/08/14 06:58:14;;;;;;;4.80;4.40;;;25.70;70.40;;;;;;5099247;28;20057;-73
2022/08/14 07:05:44;;;;;;;6.80;6.10;;;25.80;70.20;;;;;;5098337;28;20024;-74
2022/08/14 07:06:14;;;;;;;6.13;5.28;;;25.80;69.90;;;;;;5097222;28;20434;-74
2022/08/14 07:08:42;;;;;;;6.78;6.15;;;25.90;70.00;;;;;;5092788;28;20047;-74
2022/08/14 07:11:09;;;;;;;5.00;4.60;;;26.10;69.60;;;;;;5084026;28;20032;-74
2022/08/14 07:13:36;;;;;;;6.95;5.20;;;26.30;69.20;;;;;;5094422;28;20031;-74
2022/08/14 07:16:04;;;;;;;6.63;6.00;;;26.40;68.90;;;;;;5095803;28;20037;-74
2022/08/14 07:18:40;;;;;;;4.78;4.38;;;26.50;68.70;;;;;;5098670;28;20039;-74
2022/08/14 07:21:08;;;;;;;6.13;5.28;;;26.50;68.80;;;;;;5092264;28;20042;-75
2022/08/14 07:23:35;;;;;;;6.38;5.88;;;26.40;68.80;;;;;;5096688;28;20028;-74
2022/08/14 07:26:02;;;;;;;34.58;31.17;;;26.50;68.90;;;;;;5091475;28;20024;-73
2022/08/14 07:28:34;;;;;;;12.93;11.77;;;26.40;68.80;;;;;;5092937;28;20038;-73
2022/08/14 07:31:03;;;;;;;9.48;8.57;;;26.40;68.80;;;;;;5095983;28;20028;-73
2022/08/14 07:33:33;;;;;;;8.50;7.63;;;26.40;68.90;;;;;;5070462;28;20040;-73
2022/08/14 07:36:02;;;;;;;7.32;6.38;;;26.40;69.00;;;;;;5091745;28;20042;-73
2022/08/14 07:38:29;;;;;;;5.78;5.32;;;26.40;68.80;;;;;;5059530;28;20043;-72
2022/08/14 07:40:56;;;;;;;7.88;7.18;;;26.40;68.80;;;;;;5072290;28;20383;-73
2022/08/14 07:43:23;;;;;;;5.32;4.82;;;26.60;68.90;;;;;;5090116;28;20043;-73
2022/08/14 07:45:49;;;;;;;7.20;6.10;;;26.60;68.70;;;;;;5091930;28;20035;-73
2022/08/14 07:48:16;;;;;;;6.85;5.85;;;26.70;68.50;;;;;;5073320;28;20047;-73
2022/08/14 07:50:44;;;;;;;5.90;5.40;;;26.80;68.50;;;;;;5089286;28;20376;-75
2022/08/14 07:53:13;;;;;;;5.15;4.70;;;26.80;68.60;;;;;;5094997;28;20059;-72
2022/08/14 07:55:41;;;;;;;6.20;5.18;;;26.90;68.20;;;;;;5095510;28;20020;-72
2022/08/14 07:58:10;;;;;;;7.22;6.38;;;27.00;68.20;;;;;;5060116;28;20041;-72
2022/08/14 08:00:37;;;;;;;6.32;5.72;;;27.00;68.00;;;;;;5091185;28;20031;-72
2022/08/14 08:03:08;;;;;;;6.13;5.53;;;27.10;68.40;;;;;;5095038;28;20044;-72
2022/08/14 08:05:37;;;;;;;4.32;3.92;;;27.20;67.70;;;;;;5118626;27;20058;-72
2022/08/14 08:08:05;;;;;;;4.82;4.25;;;27.30;67.70;;;;;;5091959;28;20391;-72
2022/08/14 08:10:31;;;;;;;10.02;6.15;;;27.60;67.60;;;;;;5093667;28;20036;-72
2022/08/14 08:13:12;;;;;;;5.38;4.88;;;27.70;67.00;;;;;;5071344;28;20040;-72
2022/08/14 08:15:42;;;;;;;5.32;4.82;;;27.80;66.70;;;;;;5091238;28;20036;-72
2022/08/14 08:18:11;;;;;;;4.95;4.55;;;27.90;66.50;;;;;;5072373;28;20032;-72
2022/08/14 08:20:41;;;;;;;5.38;4.97;;;27.90;66.40;;;;;;5091458;28;20028;-72
2022/08/14 08:23:09;;;;;;;6.13;5.13;;;28.00;66.40;;;;;;5089247;28;20051;-72
2022/08/14 08:25:43;;;;;;;4.60;4.20;;;28.10;66.20;;;;;;5094385;28;20032;-72
2022/08/14 08:28:14;;;;;;;6.20;5.70;;;28.30;66.10;;;;;;5080264;28;20040;-72
2022/08/14 08:30:46;;;;;;;4.80;4.10;;;28.40;65.40;;;;;;5092965;28;20032;-72
2022/08/14 08:33:15;;;;;;;5.97;5.38;;;28.50;65.50;;;;;;5090408;28;20135;-75
2022/08/14 08:35:42;;;;;;;5.63;5.13;;;28.70;65.40;;;;;;5092618;28;20028;-75
2022/08/14 08:38:18;;;;;;;6.28;5.78;;;28.80;66.00;;;;;;5057690;28;20490;-75
2022/08/14 08:40:48;;;;;;;6.53;6.03;;;28.90;65.00;;;;;;5094405;28;20035;-75
2022/08/14 08:43:21;;;;;;;5.63;4.65;;;28.90;64.50;;;;;;5091851;28;20403;-75
2022/08/14 08:45:55;;;;;;;4.95;4.55;;;29.00;64.30;;;;;;5094001;28;20040;-75
2022/08/14 08:48:29;;;;;;;3.95;3.55;;;29.00;64.40;;;;;;5091223;28;20497;-75
2022/08/14 08:50:59;;;;;;;4.30;3.90;;;29.10;64.30;;;;;;5098161;28;20024;-75
2022/08/14 08:53:33;;;;;;;4.93;4.57;;;29.30;64.40;;;;;;5083430;28;20518;-75
2022/08/14 08:56:01;;;;;;;4.00;3.65;;;29.40;63.80;;;;;;5095386;28;20383;-74
2022/08/14 08:58:27;;;;;;;6.68;5.35;;;29.50;63.80;;;;;;5097991;28;20380;-74
2022/08/14 09:00:56;;;;;;;3.88;3.58;;;29.70;63.40;;;;;;5098183;28;20074;-75
2022/08/14 09:03:25;;;;;;;11.85;4.15;;;29.80;63.30;;;;;;5093924;28;20039;-75
2022/08/14 09:05:56;;;;;;;4.00;3.70;;;29.90;63.30;;;;;;5081578;28;20040;-75
2022/08/14 09:08:25;;;;;;;3.60;3.30;;;30.00;63.10;;;;;;5080618;28;20043;-74
2022/08/14 09:10:53;;;;;;;3.85;3.55;;;30.10;62.80;;;;;;5097486;28;20032;-75
2022/08/14 09:13:24;;;;;;;4.88;4.38;;;30.30;62.50;;;;;;5095548;28;20032;-75
2022/08/14 09:15:52;;;;;;;3.85;3.50;;;30.50;62.10;;;;;;5088239;28;20042;-74
2022/08/14 09:18:21;;;;;;;4.13;3.83;;;30.60;61.80;;;;;;5101438;28;20028;-75
2022/08/14 09:20:50;;;;;;;4.53;3.65;;;30.60;61.20;;;;;;5096331;28;20033;-75
2022/08/14 09:23:17;;;;;;;3.47;3.17;;;30.80;61.20;;;;;;5080484;28;20032;-75
2022/08/14 09:25:46;;;;;;;4.45;3.67;;;30.90;61.50;;;;;;5081377;28;20036;-75
2022/08/14 09:28:14;;;;;;;4.68;3.53;;;31.00;60.70;;;;;;5098455;28;20430;-75
2022/08/14 09:30:46;;;;;;;3.58;3.28;;;31.10;60.60;;;;;;5104367;28;20036;-75
2022/08/14 09:33:25;;;;;;;4.30;3.00;;;31.20;60.50;;;;;;5094340;28;20379;-75
2022/08/14 09:36:07;;;;;;;4.80;3.08;;;31.40;60.60;;;;;;5083110;28;20493;-75
2022/08/14 09:38:48;;;;;;;3.85;3.42;;;31.60;60.30;;;;;;5098943;28;20031;-75
2022/08/14 09:41:41;;;;;;;3.65;3.30;;;31.70;59.30;;;;;;5099400;28;20028;-74
2022/08/14 09:44:13;;;;;;;4.15;3.75;;;31.80;59.30;;;;;;5075935;28;20411;-75
2022/08/14 09:46:52;;;;;;;5.35;4.95;;;31.80;58.50;;;;;;5102552;28;20066;-76
2022/08/14 09:49:32;;;;;;;5.53;5.13;;;31.60;58.30;;;;;;5097724;28;20039;-76
2022/08/14 09:52:09;;;;;;;5.07;4.68;;;31.50;58.10;;;;;;5080211;28;20151;-74
2022/08/14 09:54:43;;;;;;;4.82;4.38;;;31.50;58.20;;;;;;5080829;28;20028;-75
2022/08/14 09:57:23;;;;;;;4.07;3.78;;;31.50;58.40;;;;;;5080066;28;20023;-74
2022/08/14 09:59:50;;;;;;;4.07;3.70;;;31.50;57.90;;;;;;5115418;27;20032;-75
2022/08/14 10:02:31;;;;;;;4.63;4.22;;;31.50;58.30;;;;;;5082358;28;20044;-75
2022/08/14 10:04:59;;;;;;;4.00;3.70;;;31.70;57.80;;;;;;5098216;28;20391;-74
2022/08/14 10:07:34;;;;;;;3.80;3.50;;;31.70;57.70;;;;;;5096098;28;20024;-76
2022/08/14 10:10:02;;;;;;;3.65;3.35;;;31.80;57.70;;;;;;5097379;28;20039;-75
2022/08/14 10:12:43;;;;;;;4.60;4.20;;;32.00;57.60;;;;;;5101381;28;20039;-75
2022/08/14 10:15:19;;;;;;;4.78;4.35;;;32.10;56.60;;;;;;5095699;28;20039;-76
2022/08/14 10:17:47;;;;;;;5.22;4.72;;;32.10;56.40;;;;;;5091096;28;20046;-75
2022/08/14 10:20:16;;;;;;;8.85;3.97;;;32.10;56.80;;;;;;5099432;28;20179;-74
2022/08/14 10:22:42;;;;;;;6.97;6.18;;;32.20;56.80;;;;;;5109679;27;20036;-74
2022/08/14 10:25:13;;;;;;;3.80;3.50;;;32.30;56.10;;;;;;5094023;28;20036;-76
2022/08/14 10:27:40;;;;;;;4.68;4.28;;;32.30;56.10;;;;;;5088134;28;20037;-76
2022/08/14 10:30:16;;;;;;;4.90;4.28;;;32.30;55.80;;;;;;5061197;28;20376;-76
2022/08/14 10:32:44;;;;;;;5.88;5.18;;;32.50;55.80;;;;;;5098927;28;20059;-76
2022/08/14 10:35:12;;;;;;;5.38;4.88;;;32.80;55.90;;;;;;5098495;28;20020;-76
2022/08/14 10:37:49;;;;;;;6.63;6.03;;;33.00;55.00;;;;;;5102369;28;20040;-75
2022/08/14 10:40:30;;;;;;;3.85;3.40;;;33.20;54.00;;;;;;5095526;28;20031;-75
2022/08/14 10:42:56;;;;;;;6.05;3.33;;;33.40;53.90;;;;;;5100522;28;20024;-75
2022/08/14 10:45:32;;;;;;;5.20;3.40;;;33.70;54.00;;;;;;5094606;28;20024;-76
2022/08/14 10:48:00;;;;;;;3.72;3.38;;;33.90;53.10;;;;;;5079656;28;20490;-74
2022/08/14 10:50:40;;;;;;;4.22;3.03;;;34.00;52.30;;;;;;5094263;28;20035;-75
2022/08/14 10:53:06;;;;;;;2.45;2.25;;;34.10;52.20;;;;;;5079320;28;20474;-75
2022/08/14 10:55:40;;;;;;;4.03;3.72;;;34.30;52.10;;;;;;5096314;28;20032;-75
2022/08/14 10:58:10;;;;;;;2.95;2.15;;;34.60;50.60;;;;;;5095715;28;20039;-75
2022/08/14 11:00:52;;;;;;;2.63;2.42;;;34.90;51.00;;;;;;5076608;28;20032;-75
2022/08/14 11:03:18;;;;;;;2.65;2.45;;;35.30;50.40;;;;;;5092260;28;20023;-74
2022/08/14 11:05:47;;;;;;;3.25;2.70;;;35.70;49.80;;;;;;5092883;28;20043;-74
2022/08/14 11:08:18;;;;;;;3.00;2.63;;;36.10;49.50;;;;;;5095456;28;20036;-75
2022/08/14 11:10:54;;;;;;;2.83;2.63;;;36.30;49.20;;;;;;5093081;28;20031;-75
2022/08/14 11:13:23;;;;;;;2.50;2.30;;;36.80;49.10;;;;;;5095655;28;20266;-75
2022/08/14 11:15:50;;;;;;;3.28;2.38;;;37.20;48.20;;;;;;5091197;28;20462;-75
2022/08/14 11:18:17;;;;;;;2.20;2.00;;;37.50;47.50;;;;;;5076928;28;20032;-71
2022/08/14 11:20:55;;;;;;;4.63;2.35;;;37.80;47.10;;;;;;5095122;28;20020;-73
2022/08/14 11:23:27;;;;;;;2.58;2.38;;;38.00;46.00;;;;;;5094374;28;20023;-75
2022/08/14 11:25:56;;;;;;;2.60;2.40;;;38.10;46.00;;;;;;5092999;28;20024;-73
2022/08/14 11:28:24;;;;;;;4.72;2.88;;;38.40;46.10;;;;;;5097875;28;20024;-73
2022/08/14 11:30:52;;;;;;;2.40;2.20;;;38.70;45.50;;;;;;5096937;28;20035;-74
2022/08/14 11:33:23;;;;;;;5.05;2.10;;;39.00;45.20;;;;;;5094973;28;20051;-74
2022/08/14 11:35:50;;;;;;;4.78;2.30;;;39.40;44.80;;;;;;5096642;28;20023;-75
2022/08/14 11:38:18;;;;;;;2.85;2.13;;;39.80;44.00;;;;;;5082437;28;20032;-75
2022/08/14 11:40:45;;;;;;;7.20;5.50;;;40.10;43.50;;;;;;5094630;28;20047;-75
2022/08/14 11:43:12;;;;;;;2.83;2.47;;;40.20;43.00;;;;;;5096599;28;20475;-75
2022/08/14 11:45:47;;;;;;;2.47;2.28;;;40.30;43.00;;;;;;5082360;28;20032;-75
2022/08/14 11:48:14;;;;;;;2.08;1.88;;;40.50;42.70;;;;;;5080333;28;20032;-74
2022/08/14 11:50:42;;;;;;;2.40;2.20;;;40.70;42.50;;;;;;5102928;28;20391;-73
2022/08/14 11:53:31;;;;;;;2.67;2.20;;;41.00;41.80;;;;;;5097960;28;20051;-73
2022/08/14 11:56:04;;;;;;;2.50;2.30;;;41.20;41.30;;;;;;5095352;28;20023;-74
2022/08/14 11:58:36;;;;;;;2.22;2.03;;;41.50;41.10;;;;;;5099866;28;20046;-74
2022/08/14 12:01:09;;;;;;;5.32;2.33;;;41.70;40.80;;;;;;5102111;28;20020;-74
2022/08/14 12:03:44;;;;;;;2.63;2.42;;;41.90;40.60;;;;;;5098136;28;20475;-74
2022/08/14 12:06:18;;;;;;;2.17;1.98;;;42.10;40.80;;;;;;5095963;28;20024;-73
2022/08/14 12:08:45;;;;;;;2.53;2.30;;;42.20;39.80;;;;;;5100209;28;20367;-74
2022/08/14 12:11:14;;;;;;;2.22;2.03;;;42.40;39.90;;;;;;5101230;28;20040;-74
2022/08/14 12:13:42;;;;;;;2.17;1.98;;;42.70;39.50;;;;;;5094995;28;20032;-74
2022/08/14 12:16:11;;;;;;;2.17;1.98;;;42.90;39.20;;;;;;5097088;28;20058;-74
2022/08/14 12:18:40;;;;;;;3.80;1.60;;;43.20;38.80;;;;;;5099883;28;20034;-74
2022/08/14 12:21:20;;;;;;;2.08;1.88;;;43.30;38.20;;;;;;5103450;28;20032;-74
2022/08/14 12:24:00;;;;;;;2.67;1.65;;;43.60;37.80;;;;;;5090717;28;20040;-74
2022/08/14 12:26:27;;;;;;;1.88;1.77;;;43.70;37.30;;;;;;5101917;28;20051;-74
2022/08/14 12:29:10;;;;;;;2.42;1.70;;;43.80;37.30;;;;;;5096263;28;20028;-74
2022/08/14 12:31:40;;;;;;;2.75;1.52;;;44.00;36.80;;;;;;5099080;28;20091;-74
2022/08/14 12:34:08;;;;;;;3.00;1.67;;;44.30;36.60;;;;;;5092803;28;20032;-74
2022/08/14 12:36:34;;;;;;;3.78;2.13;;;44.50;36.50;;;;;;5079297;28;20640;-74
2022/08/14 12:39:17;;;;;;;2.00;1.77;;;44.60;36.20;;;;;;5063997;28;20084;-74
2022/08/14 12:42:00;;;;;;;2.38;2.17;;;44.50;36.00;;;;;;5079599;28;20378;-74
2022/08/14 12:44:41;;;;;;;1.90;1.77;;;44.30;36.30;;;;;;5094660;28;20032;-72
2022/08/14 12:47:19;;;;;;;2.10;1.90;;;43.80;35.90;;;;;;5096455;28;20477;-72
2022/08/14 12:49:52;;;;;;;2.75;2.50;;;42.30;36.80;;;;;;5082677;28;20032;-72
2022/08/14 12:52:34;;;;;;;2.75;2.03;;;41.40;38.80;;;;;;5083256;28;20034;-72
2022/08/14 12:55:05;;;;;;;2.88;2.42;;;41.60;37.80;;;;;;5078178;28;20035;-73
2022/08/14 12:57:41;;;;;;;4.20;2.17;;;42.00;37.60;;;;;;5097937;28;20036;-72
2022/08/14 13:00:19;;;;;;;2.60;2.40;;;42.50;37.60;;;;;;5113404;28;20036;-74
2022/08/14 13:02:50;;;;;;;1.95;1.77;;;43.10;37.30;;;;;;5097260;28;20040;-73
2022/08/14 13:05:23;;;;;;;2.30;2.08;;;43.60;36.70;;;;;;5098871;28;20035;-74
2022/08/14 13:07:52;;;;;;;3.38;1.75;;;44.20;36.80;;;;;;5112753;28;20459;-74
2022/08/14 13:10:20;;;;;;;4.63;2.60;;;44.50;35.80;;;;;;5058480;28;20036;-74
2022/08/14 13:12:49;;;;;;;2.83;2.22;;;44.50;35.30;;;;;;5095652;28;20491;-74
2022/08/14 13:15:16;;;;;;;3.47;1.80;;;44.60;35.60;;;;;;5100554;28;20043;-74
2022/08/14 13:17:48;;;;;;;2.58;2.25;;;44.90;35.60;;;;;;5084781;28;20059;-74
2022/08/14 13:20:21;;;;;;;2.42;2.20;;;45.30;35.60;;;;;;5103324;28;21310;-74